createdAt,value
2023-04-10T00:00:22.595Z,10.90
2023-04-10T00:01:26.483Z,10.90
2023-04-10T00:02:31.342Z,10.90
2023-04-10T00:03:35.920Z,10.90
2023-04-10T00:04:41.968Z,10.90
2023-04-10T00:05:46.554Z,10.90
2023-04-10T00:06:49.436Z,10.90
2023-04-10T00:07:53.718Z,10.90
2023-04-10T00:08:56.033Z,10.90
2023-04-10T00:09:59.733Z,10.90
2023-04-10T00:11:02.389Z,10.80
2023-04-10T00:12:06.868Z,10.80
2023-04-10T00:13:10.524Z,10.70
2023-04-10T00:14:14.199Z,10.80
2023-04-10T00:15:18.115Z,10.70
2023-04-10T00:16:21.799Z,10.80
2023-04-10T00:17:24.676Z,10.70
2023-04-10T00:18:30.678Z,10.80
2023-04-10T00:19:33.460Z,10.70
2023-04-10T00:20:37.157Z,10.70
2023-04-10T00:21:39.779Z,10.70
2023-04-10T00:22:43.986Z,11.40
2023-04-10T00:23:46.694Z,9.10
2023-04-10T00:24:50.590Z,13.80
2023-04-10T00:25:54.794Z,10.70
2023-04-10T00:26:58.551Z,10.60
2023-04-10T00:28:06.591Z,10.60
2023-04-10T00:29:10.335Z,10.70
2023-04-10T00:30:17.088Z,10.60
2023-04-10T00:31:22.788Z,10.60
2023-04-10T00:32:28.241Z,10.60
2023-04-10T00:33:31.776Z,10.60
2023-04-10T00:34:34.353Z,10.60
2023-04-10T00:35:41.518Z,10.50
2023-04-10T00:36:46.938Z,7.00
2023-04-10T00:37:54.117Z,10.50
2023-04-10T00:39:00.064Z,10.50
2023-04-10T00:40:06.262Z,8.00
2023-04-10T00:41:11.711Z,10.50
2023-04-10T00:42:15.513Z,10.50
2023-04-10T00:43:21.890Z,10.40
2023-04-10T00:44:24.822Z,10.40
2023-04-10T00:45:30.400Z,11.40
2023-04-10T00:46:37.542Z,10.50
2023-04-10T00:47:41.148Z,11.20
2023-04-10T00:48:44.394Z,10.30
2023-04-10T00:49:49.094Z,10.30
2023-04-10T00:50:51.724Z,8.80
2023-04-10T00:52:02.352Z,10.20
2023-04-10T00:53:08.330Z,10.30
2023-04-10T00:54:14.428Z,10.20
2023-04-10T00:56:26.937Z,10.20
2023-04-10T00:57:31.463Z,10.40
2023-04-10T00:58:33.995Z,8.70
2023-04-10T01:00:42.231Z,12.90
2023-04-10T01:01:46.387Z,10.30
2023-04-10T01:02:53.631Z,6.80
2023-04-10T01:03:58.390Z,10.30
2023-04-10T01:05:05.236Z,13.30
2023-04-10T01:06:22.921Z,6.80
2023-04-10T01:07:45.412Z,10.30
2023-04-10T01:08:57.534Z,10.30
2023-04-10T01:10:13.773Z,10.30
2023-04-10T01:11:29.023Z,10.60
2023-04-10T01:12:47.323Z,10.30
2023-04-10T01:14:01.390Z,10.30
2023-04-10T01:15:12.927Z,10.20
2023-04-10T01:16:25.364Z,10.20
2023-04-10T01:17:41.968Z,10.20
2023-04-10T01:18:51.289Z,10.20
2023-04-10T01:20:06.359Z,10.30
2023-04-10T01:21:15.778Z,9.20
2023-04-10T01:22:24.842Z,10.30
2023-04-10T01:24:05.725Z,10.20
2023-04-10T01:25:30.535Z,10.20
2023-04-10T01:26:53.868Z,10.20
2023-04-10T01:28:12.141Z,10.30
2023-04-10T01:29:20.749Z,10.20
2023-04-10T01:30:28.708Z,10.30
2023-04-10T01:31:38.788Z,10.30
2023-04-10T01:32:45.202Z,10.20
2023-04-10T01:33:54.471Z,10.20
2023-04-10T01:35:06.737Z,10.20
2023-04-10T01:36:13.894Z,10.20
2023-04-10T01:37:20.834Z,10.30
2023-04-10T01:38:27.549Z,10.20
2023-04-10T01:39:36.927Z,10.10
2023-04-10T01:40:50.204Z,10.20
2023-04-10T01:42:01.408Z,14.10
2023-04-10T01:43:16.237Z,10.20
2023-04-10T01:44:32.843Z,10.10
2023-04-10T01:46:50.188Z,6.40
2023-04-10T01:47:54.203Z,10.00
2023-04-10T01:49:07.465Z,10.60
2023-04-10T01:50:12.502Z,10.00
2023-04-10T01:51:21.077Z,10.00
2023-04-10T01:52:26.734Z,10.10
2023-04-10T01:53:46.772Z,10.00
2023-04-10T01:54:53.052Z,10.90
2023-04-10T01:57:18.373Z,10.00
2023-04-10T01:58:30.182Z,8.50
2023-04-10T01:59:38.140Z,10.00
2023-04-10T02:00:45.818Z,10.00
2023-04-10T02:01:49.956Z,10.00
2023-04-10T02:02:54.420Z,10.00
2023-04-10T02:03:58.015Z,9.90
2023-04-10T02:05:04.528Z,9.90
2023-04-10T02:06:17.999Z,9.90
2023-04-10T02:07:30.225Z,9.90
2023-04-10T02:08:39.004Z,12.00
2023-04-10T02:09:55.161Z,9.80
2023-04-10T02:11:11.997Z,9.80
2023-04-10T02:12:22.269Z,9.80
2023-04-10T02:13:30.718Z,9.80
2023-04-10T02:14:37.785Z,9.70
2023-04-10T02:15:46.872Z,13.80
2023-04-10T02:16:55.632Z,9.70
2023-04-10T02:18:06.826Z,13.00
2023-04-10T02:19:11.647Z,9.70
2023-04-10T02:20:19.136Z,9.70
2023-04-10T02:21:22.185Z,9.70
2023-04-10T02:22:27.640Z,9.70
2023-04-10T02:23:30.326Z,9.60
2023-04-10T02:24:38.869Z,9.60
2023-04-10T02:25:49.412Z,9.60
2023-04-10T02:26:54.687Z,9.60
2023-04-10T02:27:59.002Z,9.60
2023-04-10T02:29:06.597Z,9.60
2023-04-10T02:31:05.254Z,9.60
2023-04-10T02:32:10.815Z,9.60
2023-04-10T02:33:16.482Z,9.60
2023-04-10T02:34:19.012Z,9.60
2023-04-10T02:35:23.337Z,9.70
2023-04-10T02:36:26.310Z,9.60
2023-04-10T02:38:39.463Z,9.70
2023-04-10T02:39:43.599Z,9.60
2023-04-10T02:40:50.558Z,9.60
2023-04-10T02:41:55.303Z,9.60
2023-04-10T02:42:58.568Z,9.60
2023-04-10T02:44:02.310Z,9.50
2023-04-10T02:45:12.282Z,9.60
2023-04-10T02:46:19.332Z,9.60
2023-04-10T02:47:24.232Z,9.50
2023-04-10T02:48:29.496Z,8.80
2023-04-10T02:49:37.413Z,9.60
2023-04-10T02:50:47.924Z,9.60
2023-04-10T02:52:55.392Z,9.60
2023-04-10T02:56:13.220Z,9.60
2023-04-10T02:57:20.388Z,9.60
2023-04-10T02:58:23.863Z,9.50
2023-04-10T03:00:34.778Z,9.70
2023-04-10T03:02:01.781Z,9.60
2023-04-10T03:03:08.539Z,10.20
2023-04-10T03:04:20.780Z,9.50
2023-04-10T03:05:24.192Z,9.50
2023-04-10T03:06:28.929Z,9.50
2023-04-10T03:07:36.213Z,9.50
2023-04-10T03:08:43.654Z,9.60
2023-04-10T03:09:47.855Z,12.60
2023-04-10T03:10:52.534Z,9.40
2023-04-10T03:12:00.278Z,9.60
2023-04-10T03:13:03.663Z,11.80
2023-04-10T03:14:08.143Z,5.00
2023-04-10T03:15:12.049Z,9.40
2023-04-10T03:17:22.135Z,10.00
2023-04-10T03:18:27.851Z,12.80
2023-04-10T03:19:31.800Z,9.40
2023-04-10T03:20:37.362Z,8.20
2023-04-10T03:21:40.769Z,9.40
2023-04-10T03:22:47.707Z,9.80
2023-04-10T03:23:52.955Z,10.10
2023-04-10T03:24:59.607Z,9.40
2023-04-10T03:26:02.686Z,9.40
2023-04-10T03:27:07.963Z,9.40
2023-04-10T03:28:10.674Z,9.30
2023-04-10T03:29:19.035Z,9.40
2023-04-10T03:30:22.554Z,9.40
2023-04-10T03:31:28.533Z,13.40
2023-04-10T03:32:34.606Z,9.40
2023-04-10T03:33:42.281Z,9.10
2023-04-10T03:34:44.821Z,9.40
2023-04-10T03:35:52.325Z,9.40
2023-04-10T03:36:55.922Z,9.50
2023-04-10T03:39:05.473Z,9.40
2023-04-10T03:40:12.104Z,9.90
2023-04-10T03:41:20.822Z,9.40
2023-04-10T03:42:25.856Z,9.40
2023-04-10T03:43:32.538Z,9.30
2023-04-10T03:44:37.074Z,9.40
2023-04-10T03:45:41.521Z,9.30
2023-04-10T03:46:47.865Z,9.30
2023-04-10T03:47:51.743Z,9.40
2023-04-10T03:49:00.540Z,9.40
2023-04-10T03:50:09.609Z,11.30
2023-04-10T03:51:21.424Z,9.50
2023-04-10T03:52:25.430Z,9.40
2023-04-10T03:53:36.074Z,13.20
2023-04-10T03:54:44.034Z,9.30
2023-04-10T03:56:00.415Z,9.30
2023-04-10T03:57:07.492Z,9.40
2023-04-10T03:58:10.506Z,9.80
2023-04-10T03:59:15.238Z,9.40
2023-04-10T04:00:20.400Z,9.30
2023-04-10T04:01:28.521Z,9.30
2023-04-10T04:02:40.258Z,6.20
2023-04-10T04:03:46.016Z,9.20
2023-04-10T04:05:11.166Z,9.20
2023-04-10T04:06:26.110Z,9.30
2023-04-10T04:07:51.440Z,9.30
2023-04-10T04:09:07.583Z,9.20
2023-04-10T04:10:29.917Z,9.30
2023-04-10T04:11:50.388Z,9.30
2023-04-10T04:13:12.685Z,7.80
2023-04-10T04:14:43.581Z,9.40
2023-04-10T04:16:02.460Z,9.30
2023-04-10T04:17:29.914Z,9.40
2023-04-10T04:20:07.402Z,9.40
2023-04-10T04:21:49.436Z,9.40
2023-04-10T04:24:31.317Z,10.10
2023-04-10T04:26:04.073Z,10.10
2023-04-10T04:27:40.593Z,10.80
2023-04-10T04:29:09.757Z,11.00
2023-04-10T04:30:39.496Z,11.30
2023-04-10T04:31:48.741Z,11.70
2023-04-10T04:33:11.467Z,11.50
2023-04-10T04:34:34.613Z,16.00
2023-04-10T04:35:59.114Z,11.50
2023-04-10T04:37:20.677Z,11.50
2023-04-10T04:38:37.650Z,11.70
2023-04-10T04:42:15.822Z,12.00
2023-04-10T04:43:37.860Z,12.10
2023-04-10T04:44:57.917Z,15.20
2023-04-10T04:46:19.754Z,12.40
2023-04-10T04:47:49.654Z,12.50
2023-04-10T04:49:06.723Z,12.50
2023-04-10T04:50:23.149Z,12.60
2023-04-10T04:51:51.758Z,12.80
2023-04-10T04:53:15.937Z,12.90
2023-04-10T04:54:38.402Z,12.20
2023-04-10T04:56:05.558Z,12.90
2023-04-10T04:57:17.301Z,13.00
2023-04-10T04:58:54.978Z,13.10
2023-04-10T05:00:31.006Z,13.20
2023-04-10T05:01:41.215Z,13.20
2023-04-10T05:02:55.072Z,13.30
2023-04-10T05:04:34.568Z,13.40
2023-04-10T05:06:06.804Z,13.50
2023-04-10T05:07:27.328Z,14.50
2023-04-10T05:09:04.552Z,15.50
2023-04-10T05:10:29.017Z,13.90
2023-04-10T05:11:55.829Z,14.10
2023-04-10T05:13:20.514Z,14.20
2023-04-10T05:16:08.115Z,14.40
2023-04-10T05:18:53.770Z,14.70
2023-04-10T05:20:17.942Z,14.90
2023-04-10T05:21:52.980Z,15.00
2023-04-10T05:23:19.696Z,15.20
2023-04-10T05:24:42.947Z,15.50
2023-04-10T05:25:52.589Z,15.20
2023-04-10T05:27:27.732Z,15.50
2023-04-10T05:28:49.837Z,15.80
2023-04-10T05:31:49.618Z,16.10
2023-04-10T05:33:14.903Z,17.80
2023-04-10T05:34:36.152Z,16.20
2023-04-10T05:35:56.780Z,16.40
2023-04-10T05:37:08.824Z,16.50
2023-04-10T05:38:30.851Z,16.50
2023-04-10T05:40:01.962Z,16.70
2023-04-10T05:41:22.966Z,17.50
2023-04-10T05:42:45.103Z,17.00
2023-04-10T05:44:02.634Z,20.90
2023-04-10T05:45:28.646Z,17.10
2023-04-10T05:46:35.794Z,17.20
2023-04-10T05:48:08.136Z,19.30
2023-04-10T05:49:23.111Z,17.30
2023-04-10T05:50:36.801Z,17.40
2023-04-10T05:51:54.513Z,17.30
2023-04-10T05:53:21.235Z,17.40
2023-04-10T05:54:42.922Z,14.20
2023-04-10T05:56:08.198Z,17.60
2023-04-10T05:57:31.137Z,17.70
2023-04-10T05:58:59.879Z,17.90
2023-04-10T06:00:31.305Z,17.90
2023-04-10T06:02:04.161Z,18.00
2023-04-10T06:03:07.045Z,18.10
2023-04-10T06:04:22.665Z,13.80
2023-04-10T06:05:29.515Z,18.30
2023-04-10T06:07:40.773Z,18.50
2023-04-10T06:08:49.993Z,18.50
2023-04-10T06:09:52.542Z,18.60
2023-04-10T06:10:56.282Z,18.60
2023-04-10T06:13:09.798Z,18.70
2023-04-10T06:14:14.735Z,15.90
2023-04-10T06:15:20.121Z,18.70
2023-04-10T06:16:23.864Z,18.70
2023-04-10T06:17:28.570Z,18.70
2023-04-10T06:18:31.599Z,18.70
2023-04-10T06:19:37.765Z,15.40
2023-04-10T06:20:40.334Z,21.70
2023-04-10T06:21:43.699Z,18.50
2023-04-10T06:22:51.136Z,18.40
2023-04-10T06:23:55.755Z,18.60
2023-04-10T06:24:58.610Z,18.90
2023-04-10T06:26:03.596Z,18.80
2023-04-10T06:27:10.466Z,18.80
2023-04-10T06:28:14.117Z,19.00
2023-04-10T06:29:20.393Z,19.00
2023-04-10T06:31:27.575Z,19.30
2023-04-10T06:32:32.128Z,19.40
2023-04-10T06:33:37.174Z,19.40
2023-04-10T06:34:43.773Z,19.50
2023-04-10T06:35:54.684Z,19.50
2023-04-10T06:36:57.340Z,19.60
2023-04-10T06:38:01.531Z,19.60
2023-04-10T06:39:06.942Z,19.60
2023-04-10T06:40:12.559Z,19.50
2023-04-10T06:41:17.655Z,19.60
2023-04-10T06:42:22.506Z,19.60
2023-04-10T06:43:38.264Z,19.70
2023-04-10T06:44:40.711Z,19.70
2023-04-10T06:45:47.236Z,19.70
2023-04-10T06:46:51.431Z,19.80
2023-04-10T06:47:54.498Z,19.80
2023-04-10T06:48:57.967Z,19.70
2023-04-10T06:50:00.786Z,19.60
2023-04-10T06:51:04.895Z,19.50
2023-04-10T06:52:11.460Z,19.50
2023-04-10T06:53:14.975Z,21.50
2023-04-10T06:54:17.385Z,19.50
2023-04-10T06:55:21.063Z,22.00
2023-04-10T06:56:23.687Z,19.60
2023-04-10T06:57:29.910Z,19.60
2023-04-10T06:58:32.647Z,23.20
2023-04-10T06:59:37.360Z,19.90
2023-04-10T07:00:43.653Z,20.00
2023-04-10T07:01:48.420Z,20.00
2023-04-10T07:02:53.951Z,19.90
2023-04-10T07:03:57.967Z,19.80
2023-04-10T07:05:00.699Z,19.80
2023-04-10T07:06:04.546Z,19.90
2023-04-10T07:07:12.342Z,19.80
2023-04-10T07:08:17.352Z,19.90
2023-04-10T07:09:20.529Z,20.00
2023-04-10T07:10:24.929Z,20.00
2023-04-10T07:11:28.597Z,20.00
2023-04-10T07:12:33.567Z,20.30
2023-04-10T07:13:40.207Z,20.30
2023-04-10T07:15:50.322Z,20.40
2023-04-10T07:16:54.334Z,20.50
2023-04-10T07:17:56.781Z,20.60
2023-04-10T07:19:04.834Z,20.70
2023-04-10T07:20:10.576Z,20.90
2023-04-10T07:21:14.283Z,20.90
2023-04-10T07:22:19.433Z,21.10
2023-04-10T07:23:22.810Z,21.20
2023-04-10T07:24:28.527Z,21.40
2023-04-10T07:25:39.083Z,21.50
2023-04-10T07:26:42.502Z,21.50
2023-04-10T07:27:49.332Z,21.60
2023-04-10T07:28:52.110Z,21.80
2023-04-10T07:29:57.216Z,21.80
2023-04-10T07:31:06.245Z,21.90
2023-04-10T07:32:13.219Z,21.90
2023-04-10T07:33:19.457Z,21.90
2023-04-10T07:34:27.613Z,21.90
2023-04-10T07:35:30.417Z,21.90
2023-04-10T07:36:36.431Z,21.90
2023-04-10T07:37:40.034Z,22.00
2023-04-10T07:38:43.863Z,22.10
2023-04-10T07:39:48.702Z,22.00
2023-04-10T07:40:57.653Z,21.80
2023-04-10T07:42:01.373Z,23.40
2023-04-10T07:43:08.035Z,21.80
2023-04-10T07:44:13.174Z,21.80
2023-04-10T07:45:19.405Z,21.60
2023-04-10T07:46:22.211Z,21.60
2023-04-10T07:47:25.953Z,21.80
2023-04-10T07:48:32.957Z,21.70
2023-04-10T07:49:38.052Z,21.50
2023-04-10T07:50:41.903Z,21.70
2023-04-10T07:51:44.553Z,21.60
2023-04-10T07:52:47.849Z,21.40
2023-04-10T07:53:50.646Z,21.50
2023-04-10T07:54:56.856Z,21.40
2023-04-10T07:55:59.537Z,21.50
2023-04-10T07:57:03.092Z,21.50
2023-04-10T07:58:07.557Z,21.70
2023-04-10T07:59:12.908Z,21.60
2023-04-10T08:00:16.550Z,21.50
2023-04-10T08:01:20.419Z,21.50
2023-04-10T08:02:26.490Z,21.30
2023-04-10T08:03:30.335Z,21.30
2023-04-10T08:04:33.269Z,21.30
2023-04-10T08:05:37.617Z,21.30
2023-04-10T08:06:40.373Z,21.30
2023-04-10T08:07:44.095Z,21.20
2023-04-10T08:08:46.418Z,21.10
2023-04-10T08:09:52.598Z,21.10
2023-04-10T08:10:56.384Z,21.00
2023-04-10T08:11:59.724Z,20.90
2023-04-10T08:13:02.347Z,20.80
2023-04-10T08:14:07.451Z,23.60
2023-04-10T08:15:12.832Z,20.80
2023-04-10T08:16:19.777Z,20.70
2023-04-10T08:17:23.588Z,20.60
2023-04-10T08:18:26.515Z,20.70
2023-04-10T08:19:31.046Z,20.80
2023-04-10T08:20:37.178Z,20.80
2023-04-10T08:22:45.788Z,20.90
2023-04-10T08:23:53.006Z,21.00
2023-04-10T08:25:59.673Z,21.00
2023-04-10T08:27:03.495Z,21.20
2023-04-10T08:28:08.005Z,21.10
2023-04-10T08:29:15.389Z,21.10
2023-04-10T08:30:19.041Z,21.10
2023-04-10T08:31:25.075Z,21.30
2023-04-10T08:32:30.749Z,21.40
2023-04-10T08:33:33.181Z,21.40
2023-04-10T08:34:41.430Z,21.70
2023-04-10T08:36:54.301Z,20.40
2023-04-10T08:38:11.620Z,21.60
2023-04-10T08:39:20.595Z,19.70
2023-04-10T08:40:23.738Z,21.70
2023-04-10T08:41:27.668Z,21.80
2023-04-10T08:42:32.961Z,21.80
2023-04-10T08:43:40.077Z,21.70
2023-04-10T08:44:43.967Z,21.70
2023-04-10T08:45:52.910Z,21.70
2023-04-10T08:47:01.103Z,21.60
2023-04-10T08:48:09.500Z,21.70
2023-04-10T08:49:18.207Z,21.60
2023-04-10T08:50:25.387Z,21.50
2023-04-10T08:51:36.474Z,21.30
2023-04-10T08:52:45.322Z,21.10
2023-04-10T08:53:57.646Z,20.90
2023-04-10T08:55:10.252Z,20.60
2023-04-10T08:56:15.772Z,20.50
2023-04-10T08:57:29.442Z,20.50
2023-04-10T08:58:32.705Z,20.50
2023-04-10T08:59:37.094Z,20.60
2023-04-10T09:00:40.989Z,20.70
2023-04-10T09:01:46.060Z,20.70
2023-04-10T09:02:50.575Z,20.70
2023-04-10T09:03:54.800Z,20.60
2023-04-10T09:05:02.519Z,20.30
2023-04-10T09:06:11.510Z,20.10
2023-04-10T09:07:20.911Z,20.00
2023-04-10T09:09:27.540Z,19.80
2023-04-10T09:10:30.404Z,19.70
2023-04-10T09:12:00.869Z,19.70
2023-04-10T09:13:05.274Z,19.70
2023-04-10T09:14:22.877Z,19.70
2023-04-10T09:15:26.288Z,19.80
2023-04-10T09:16:31.647Z,19.90
2023-04-10T09:17:34.159Z,20.00
2023-04-10T09:18:48.970Z,20.10
2023-04-10T09:19:57.434Z,20.20
2023-04-10T09:21:07.970Z,20.10
2023-04-10T09:23:22.503Z,20.20
2023-04-10T09:24:28.786Z,20.20
2023-04-10T09:25:34.657Z,20.30
2023-04-10T09:27:42.529Z,20.40
2023-04-10T09:28:58.536Z,20.50
2023-04-10T09:30:03.609Z,17.10
2023-04-10T09:31:32.686Z,20.50
2023-04-10T09:32:42.220Z,20.70
2023-04-10T09:33:46.397Z,20.60
2023-04-10T09:34:58.769Z,20.50
2023-04-10T09:36:04.942Z,20.70
2023-04-10T09:37:10.954Z,23.20
2023-04-10T09:38:18.651Z,20.70
2023-04-10T09:39:22.459Z,20.60
2023-04-10T09:40:28.281Z,20.60
2023-04-10T09:41:32.286Z,20.70
2023-04-10T09:43:43.584Z,20.50
2023-04-10T09:44:47.325Z,20.40
2023-04-10T09:45:56.567Z,20.40
2023-04-10T09:47:20.006Z,20.40
2023-04-10T09:48:25.000Z,20.40
2023-04-10T09:49:45.673Z,20.30
2023-04-10T09:50:48.618Z,20.20
2023-04-10T09:51:52.547Z,20.20
2023-04-10T09:52:58.350Z,22.10
2023-04-10T09:54:02.455Z,20.30
2023-04-10T09:55:08.807Z,20.40
2023-04-10T09:56:13.263Z,20.30
2023-04-10T09:57:19.674Z,20.40
2023-04-10T09:58:26.554Z,20.40
2023-04-10T09:59:29.464Z,20.50
2023-04-10T10:00:39.890Z,20.40
2023-04-10T10:01:44.988Z,20.40
2023-04-10T10:02:51.753Z,20.60
2023-04-10T10:03:57.211Z,20.60
2023-04-10T10:05:01.861Z,20.70
2023-04-10T10:06:05.247Z,20.80
2023-04-10T10:07:09.285Z,20.80
2023-04-10T10:09:18.810Z,20.90
2023-04-10T10:10:21.952Z,21.00
2023-04-10T10:11:27.407Z,21.00
2023-04-10T10:12:47.435Z,21.10
2023-04-10T10:13:55.070Z,21.10
2023-04-10T10:15:08.556Z,21.20
2023-04-10T10:16:20.501Z,21.30
2023-04-10T10:17:32.261Z,21.30
2023-04-10T10:18:45.354Z,21.10
2023-04-10T10:20:04.287Z,21.00
2023-04-10T10:22:15.176Z,20.60
2023-04-10T10:23:19.573Z,19.60
2023-04-10T10:24:29.431Z,21.20
2023-04-10T10:35:39.125Z,21.50
2023-04-10T10:44:48.422Z,24.80
2023-04-10T10:47:15.762Z,21.20
2023-04-10T10:51:00.541Z,21.40
2023-04-10T10:55:36.983Z,21.40
2023-04-10T10:56:40.651Z,21.50
2023-04-10T10:57:47.793Z,21.40
2023-04-10T10:58:56.027Z,21.50
2023-04-10T11:09:51.959Z,21.60
2023-04-10T11:11:03.048Z,21.70
2023-04-10T11:52:38.178Z,21.60
2023-04-10T11:53:43.003Z,21.60
2023-04-10T11:55:54.051Z,21.80
2023-04-10T11:57:01.176Z,21.70
2023-04-10T11:58:04.213Z,21.80
2023-04-10T11:59:12.765Z,21.70
2023-04-10T12:00:24.415Z,21.80
2023-04-10T12:01:31.029Z,21.80
2023-04-10T12:02:33.567Z,21.70
2023-04-10T12:24:46.901Z,24.10
2023-04-10T12:25:49.755Z,20.80
2023-04-10T12:26:53.340Z,21.00
2023-04-10T12:29:08.076Z,17.70
2023-04-10T12:31:18.553Z,21.20
2023-04-10T12:33:29.282Z,21.40
2023-04-10T12:35:43.846Z,21.60
2023-04-10T12:36:54.280Z,21.70
2023-04-10T12:39:25.164Z,21.70
2023-04-10T12:41:36.717Z,21.60
2023-04-10T12:42:42.141Z,21.60
2023-04-10T12:43:46.104Z,21.50
2023-04-10T12:44:56.244Z,21.70
2023-04-10T12:46:00.772Z,21.70
2023-04-10T12:48:07.811Z,21.80
2023-04-10T12:49:13.220Z,23.40
2023-04-10T12:50:20.983Z,21.60
2023-04-10T12:52:00.181Z,21.50
2023-04-10T12:57:32.703Z,21.10
2023-04-10T12:58:38.675Z,21.20
2023-04-10T13:00:51.641Z,21.20
2023-04-10T13:01:55.719Z,21.40
2023-04-10T13:03:03.809Z,21.40
2023-04-10T13:04:07.703Z,21.20
2023-04-10T13:05:14.811Z,21.40
2023-04-10T13:06:18.814Z,21.40
2023-04-10T13:07:27.432Z,21.40
2023-04-10T13:10:48.428Z,21.50
2023-04-10T13:11:53.093Z,21.50
2023-04-10T13:13:00.884Z,21.50
2023-04-10T13:14:04.793Z,21.60
2023-04-10T13:19:33.670Z,21.10
2023-04-10T13:24:53.690Z,21.10
2023-04-10T13:45:18.381Z,21.00
2023-04-10T14:42:51.670Z,16.20
2023-04-10T14:43:54.271Z,16.20
2023-04-10T14:44:58.937Z,16.30
2023-04-10T14:48:12.858Z,19.10
2023-04-10T14:51:29.706Z,16.30
2023-04-10T14:53:36.237Z,16.20
2023-04-10T14:54:41.057Z,16.30
2023-04-10T15:03:14.168Z,16.60
2023-04-10T15:04:24.077Z,16.70
2023-04-10T15:12:02.044Z,16.60
2023-04-10T15:21:45.235Z,16.60
2023-04-10T15:22:48.360Z,12.00
2023-04-10T15:28:15.262Z,16.20
2023-04-10T15:43:16.214Z,16.20
2023-04-10T16:19:03.036Z,16.30
2023-04-10T18:32:27.358Z,15.00
2023-04-10T19:08:20.102Z,14.90
